createdAt,value
2018-06-03T00:01:56.773Z,63.86
2018-06-03T00:04:07.908Z,64.20
2018-06-03T00:06:18.995Z,64.13
2018-06-03T00:08:30.114Z,64.06
2018-06-03T00:10:41.305Z,64.37
2018-06-03T00:12:52.458Z,65.01
2018-06-03T00:15:03.632Z,65.24
2018-06-03T00:17:14.772Z,65.51
2018-06-03T00:19:25.960Z,65.52
2018-06-03T00:21:42.134Z,65.73
2018-06-03T00:23:53.246Z,65.87
2018-06-03T00:26:04.352Z,65.73
2018-06-03T00:28:15.570Z,65.77
2018-06-03T00:30:26.643Z,65.79
2018-06-03T00:32:37.766Z,65.60
2018-06-03T00:34:48.835Z,65.49
2018-06-03T00:36:59.930Z,65.58
2018-06-03T00:39:11.018Z,65.83
2018-06-03T00:41:22.128Z,65.84
2018-06-03T00:43:33.350Z,65.80
2018-06-03T00:45:44.473Z,66.01
2018-06-03T00:47:55.635Z,66.26
2018-06-03T00:50:06.715Z,66.13
2018-06-03T00:52:17.802Z,66.22
2018-06-03T00:54:28.882Z,65.95
2018-06-03T00:56:52.175Z,65.90
2018-06-03T00:59:03.242Z,65.87
2018-06-03T01:01:14.325Z,65.98
2018-06-03T01:03:25.427Z,65.90
2018-06-03T01:05:36.507Z,65.86
2018-06-03T01:07:47.619Z,66.10
2018-06-03T01:09:58.677Z,66.44
2018-06-03T01:12:09.789Z,66.54
2018-06-03T01:14:20.913Z,66.70
2018-06-03T01:16:32.075Z,66.81
2018-06-03T01:18:43.226Z,67.02
2018-06-03T01:20:54.314Z,67.02
2018-06-03T01:23:05.363Z,67.07
2018-06-03T01:25:16.529Z,67.13
2018-06-03T01:27:27.751Z,67.41
2018-06-03T01:29:38.884Z,67.41
2018-06-03T01:31:50.122Z,67.29
2018-06-03T01:34:01.287Z,67.16
2018-06-03T01:36:12.354Z,67.19
2018-06-03T01:38:23.439Z,67.46
2018-06-03T01:40:34.581Z,67.67
2018-06-03T01:42:45.726Z,67.81
2018-06-03T01:44:56.891Z,67.73
2018-06-03T01:47:08.010Z,67.55
2018-06-03T01:49:19.099Z,67.45
2018-06-03T01:51:30.199Z,67.69
2018-06-03T01:53:41.276Z,67.88
2018-06-03T01:55:52.429Z,67.85
2018-06-03T01:58:03.514Z,67.87
2018-06-03T02:00:14.603Z,68.04
2018-06-03T02:02:25.790Z,67.93
2018-06-03T02:04:36.891Z,67.96
2018-06-03T02:06:48.219Z,68.18
2018-06-03T02:08:59.339Z,68.22
2018-06-03T02:11:10.447Z,68.40
2018-06-03T02:13:21.523Z,68.57
2018-06-03T02:15:32.660Z,68.46
2018-06-03T02:17:43.778Z,68.21
2018-06-03T02:19:54.902Z,68.39
2018-06-03T02:22:05.969Z,68.43
2018-06-03T02:24:17.059Z,68.53
2018-06-03T02:26:28.243Z,68.76
2018-06-03T02:28:39.350Z,68.65
2018-06-03T02:30:50.566Z,68.61
2018-06-03T02:33:01.660Z,68.56
2018-06-03T02:35:12.758Z,68.62
2018-06-03T02:37:23.830Z,68.63
2018-06-03T02:39:34.953Z,68.71
2018-06-03T02:41:46.067Z,68.71
2018-06-03T02:43:57.163Z,68.91
2018-06-03T02:46:08.348Z,69.10
2018-06-03T02:48:19.447Z,69.27
2018-06-03T02:50:30.531Z,69.30
2018-06-03T02:52:41.594Z,69.50
2018-06-03T02:54:52.779Z,69.38
2018-06-03T02:57:03.919Z,69.31
2018-06-03T02:59:14.994Z,68.93
2018-06-03T03:01:26.160Z,68.62
2018-06-03T03:03:37.251Z,68.32
2018-06-03T03:05:48.459Z,68.52
2018-06-03T03:07:59.543Z,68.55
2018-06-03T03:10:10.798Z,68.75
2018-06-03T03:12:21.869Z,69.09
2018-06-03T03:14:32.995Z,69.15
2018-06-03T03:16:44.075Z,69.48
2018-06-03T03:18:55.204Z,69.41
2018-06-03T03:21:06.351Z,69.40
2018-06-03T03:23:17.431Z,69.67
2018-06-03T03:25:28.561Z,69.82
2018-06-03T03:27:39.681Z,70.11
2018-06-03T03:29:50.874Z,70.27
2018-06-03T03:32:01.947Z,70.52
2018-06-03T03:34:13.034Z,70.72
2018-06-03T03:36:24.150Z,70.60
2018-06-03T03:38:35.253Z,70.41
2018-06-03T03:40:46.430Z,70.37
2018-06-03T03:42:57.588Z,70.24
2018-06-03T03:45:08.797Z,70.31
2018-06-03T03:47:19.930Z,70.07
2018-06-03T03:49:31.093Z,70.03
2018-06-03T03:51:42.210Z,70.05
2018-06-03T03:53:53.341Z,70.00
2018-06-03T03:56:04.428Z,69.82
2018-06-03T03:58:15.494Z,69.82
2018-06-03T04:00:26.640Z,70.23
2018-06-03T04:02:37.686Z,70.17
2018-06-03T04:04:48.874Z,70.26
2018-06-03T04:07:00.099Z,70.37
2018-06-03T04:09:11.240Z,70.25
2018-06-03T04:11:22.388Z,70.07
2018-06-03T04:13:33.467Z,69.90
2018-06-03T04:15:44.658Z,69.79
2018-06-03T04:17:55.731Z,70.01
2018-06-03T04:20:06.866Z,69.96
2018-06-03T04:22:18.135Z,69.72
2018-06-03T04:24:29.271Z,69.58
2018-06-03T04:26:40.408Z,69.47
2018-06-03T04:28:51.520Z,69.21
2018-06-03T04:31:02.815Z,69.25
2018-06-03T04:33:13.899Z,69.09
2018-06-03T04:35:25.001Z,68.56
2018-06-03T04:37:36.094Z,68.42
2018-06-03T04:39:47.170Z,68.51
2018-06-03T04:41:58.295Z,68.68
2018-06-03T04:44:09.389Z,68.83
2018-06-03T04:46:20.496Z,68.96
2018-06-03T04:48:31.583Z,68.98
2018-06-03T04:50:42.684Z,68.71
2018-06-03T04:52:53.769Z,68.51
2018-06-03T04:55:04.920Z,68.13
2018-06-03T04:57:15.964Z,67.63
2018-06-03T04:59:27.066Z,66.98
2018-06-03T05:01:38.150Z,66.80
2018-06-03T05:03:49.243Z,66.71
2018-06-03T05:06:00.370Z,66.46
2018-06-03T05:08:11.508Z,66.27
2018-06-03T05:10:22.690Z,66.06
2018-06-03T05:12:33.736Z,65.26
2018-06-03T05:14:44.932Z,64.95
2018-06-03T05:16:56.001Z,64.91
2018-06-03T05:19:07.138Z,64.62
2018-06-03T05:21:18.289Z,64.50
2018-06-03T05:23:29.413Z,64.45
2018-06-03T05:25:40.635Z,64.31
2018-06-03T05:27:51.732Z,64.05
2018-06-03T05:30:02.991Z,64.42
2018-06-03T05:32:14.091Z,63.68
2018-06-03T05:34:25.143Z,63.57
2018-06-03T05:36:36.227Z,63.47
2018-06-03T05:38:47.312Z,63.86
2018-06-03T05:40:58.464Z,63.80
2018-06-03T05:43:09.558Z,63.59
2018-06-03T05:45:20.663Z,63.84
2018-06-03T05:47:31.771Z,63.69
2018-06-03T05:49:42.906Z,62.05
2018-06-03T05:51:53.979Z,62.46
2018-06-03T05:54:05.072Z,63.17
2018-06-03T05:56:16.191Z,63.14
2018-06-03T05:59:05.855Z,62.56
2018-06-03T06:01:18.246Z,63.06
2018-06-03T06:03:30.831Z,63.46
2018-06-03T06:05:43.232Z,62.89
2018-06-03T06:07:55.655Z,61.79
2018-06-03T06:10:08.077Z,62.28
2018-06-03T06:12:20.519Z,61.45
2018-06-03T06:14:33.000Z,60.69
2018-06-03T06:16:45.410Z,59.64
2018-06-03T06:18:57.811Z,60.20
2018-06-03T06:21:10.237Z,59.80
2018-06-03T06:23:22.698Z,59.44
2018-06-03T06:25:35.050Z,59.53
2018-06-03T06:27:47.622Z,59.01
2018-06-03T06:30:00.262Z,57.78
2018-06-03T06:32:12.716Z,57.54
2018-06-03T06:34:25.091Z,59.74
2018-06-03T06:36:37.486Z,56.58
2018-06-03T06:38:49.932Z,57.43
2018-06-03T06:41:02.317Z,56.56
2018-06-03T06:43:14.707Z,56.95
2018-06-03T06:45:27.108Z,57.98
2018-06-03T06:47:39.508Z,57.09
2018-06-03T06:49:51.911Z,54.84
2018-06-03T06:52:04.663Z,55.15
2018-06-03T06:54:17.048Z,53.93
2018-06-03T06:56:29.427Z,53.43
2018-06-03T06:58:41.850Z,52.80
2018-06-03T07:00:54.319Z,52.73
2018-06-03T07:03:06.812Z,53.03
2018-06-03T07:05:19.194Z,53.21
2018-06-03T07:07:31.543Z,52.83
2018-06-03T07:09:43.927Z,51.52
2018-06-03T07:11:56.332Z,50.59
2018-06-03T07:14:08.860Z,49.61
2018-06-03T07:16:21.237Z,49.42
2018-06-03T07:18:33.812Z,49.51
2018-06-03T07:20:46.311Z,48.30
2018-06-03T07:22:58.944Z,48.30
2018-06-03T07:25:11.351Z,47.65
2018-06-03T07:27:23.763Z,47.37
2018-06-03T07:29:36.126Z,46.60
2018-06-03T07:31:48.804Z,47.16
2018-06-03T07:34:01.191Z,46.24
2018-06-03T07:36:13.603Z,46.28
2018-06-03T07:38:25.982Z,46.17
2018-06-03T07:40:38.472Z,46.24
2018-06-03T07:42:50.955Z,45.49
2018-06-03T07:45:03.392Z,43.17
2018-06-03T07:47:15.787Z,45.04
2018-06-03T07:49:28.182Z,43.93
2018-06-03T07:51:40.567Z,44.30
2018-06-03T07:53:53.087Z,43.35
2018-06-03T07:56:05.475Z,43.21
2018-06-03T07:58:17.911Z,43.65
2018-06-03T08:00:30.372Z,43.38
2018-06-03T08:02:42.814Z,43.73
2018-06-03T08:04:55.387Z,43.88
2018-06-03T08:07:08.006Z,44.21
2018-06-03T08:09:20.520Z,43.05
2018-06-03T08:11:32.896Z,44.27
2018-06-03T08:13:45.516Z,43.94
2018-06-03T08:15:57.823Z,43.20
2018-06-03T08:18:10.307Z,42.65
2018-06-03T08:20:22.846Z,44.43
2018-06-03T08:22:35.182Z,44.13
2018-06-03T08:24:47.783Z,43.02
2018-06-03T08:27:00.178Z,42.43
2018-06-03T08:29:12.611Z,44.11
2018-06-03T08:31:25.085Z,41.84
2018-06-03T08:33:37.458Z,42.17
2018-06-03T08:35:49.970Z,44.27
2018-06-03T08:38:02.310Z,42.44
2018-06-03T08:40:14.727Z,41.92
2018-06-03T08:42:27.323Z,43.69
2018-06-03T08:44:39.696Z,43.77
2018-06-03T08:46:52.135Z,42.68
2018-06-03T08:49:04.508Z,42.32
2018-06-03T08:51:17.027Z,43.87
2018-06-03T08:53:29.510Z,44.31
2018-06-03T08:55:41.879Z,43.45
2018-06-03T08:57:54.231Z,43.50
2018-06-03T09:00:06.603Z,41.63
2018-06-03T09:02:19.257Z,42.57
2018-06-03T09:04:31.611Z,41.40
2018-06-03T09:06:44.027Z,42.58
2018-06-03T09:08:56.441Z,43.34
2018-06-03T09:11:08.881Z,41.61
2018-06-03T09:13:21.309Z,41.17
2018-06-03T09:15:33.762Z,40.83
2018-06-03T09:17:46.255Z,41.19
2018-06-03T09:19:58.669Z,42.49
2018-06-03T09:22:11.087Z,40.38
2018-06-03T09:24:23.579Z,40.96
2018-06-03T09:26:36.143Z,41.19
2018-06-03T09:28:48.587Z,41.49
2018-06-03T09:31:08.668Z,40.09
2018-06-03T09:33:21.121Z,40.66
2018-06-03T09:35:33.594Z,41.46
2018-06-03T09:37:45.963Z,40.38
2018-06-03T09:39:58.342Z,39.14
2018-06-03T09:42:10.714Z,39.16
2018-06-03T09:44:23.244Z,39.42
2018-06-03T09:46:35.586Z,39.80
2018-06-03T09:48:48.105Z,39.00
2018-06-03T09:51:00.610Z,39.00
2018-06-03T09:53:13.082Z,40.66
2018-06-03T09:55:25.497Z,39.11
2018-06-03T09:57:37.910Z,39.67
2018-06-03T09:59:50.332Z,41.22
2018-06-03T10:02:02.824Z,39.05
2018-06-03T10:04:15.304Z,39.93
2018-06-03T10:06:27.757Z,39.87
2018-06-03T10:08:40.126Z,38.42
2018-06-03T10:10:52.530Z,37.21
2018-06-03T10:13:04.955Z,37.69
2018-06-03T10:15:17.363Z,39.76
2018-06-03T10:17:29.810Z,39.48
2018-06-03T10:19:42.288Z,39.35
2018-06-03T10:21:54.696Z,37.92
2018-06-03T10:24:07.059Z,38.03
2018-06-03T10:26:19.486Z,36.36
2018-06-03T10:28:31.926Z,37.39
2018-06-03T10:30:44.319Z,37.80
2018-06-03T10:32:56.722Z,36.85
2018-06-03T10:35:09.162Z,37.05
2018-06-03T10:37:21.653Z,36.79
2018-06-03T10:39:34.112Z,35.94
2018-06-03T10:41:46.549Z,36.14
2018-06-03T10:43:58.948Z,35.60
2018-06-03T10:46:11.399Z,37.87
2018-06-03T10:48:23.861Z,37.83
2018-06-03T10:50:36.227Z,38.18
2018-06-03T10:52:48.615Z,39.38
2018-06-03T10:55:01.010Z,39.29
2018-06-03T10:57:13.471Z,41.35
2018-06-03T10:59:25.881Z,41.30
2018-06-03T11:01:38.284Z,40.87
2018-06-03T11:03:50.674Z,40.33
2018-06-03T11:06:03.189Z,40.15
2018-06-03T11:08:15.623Z,40.39
2018-06-03T11:10:28.138Z,41.30
2018-06-03T11:12:40.536Z,42.15
2018-06-03T11:14:52.979Z,41.70
2018-06-03T11:17:05.407Z,40.63
2018-06-03T11:19:17.911Z,41.35
2018-06-03T11:21:30.328Z,40.74
2018-06-03T11:23:42.688Z,37.86
2018-06-03T11:25:55.092Z,37.39
2018-06-03T11:28:07.499Z,39.14
2018-06-03T11:30:20.008Z,35.38
2018-06-03T11:32:32.426Z,34.24
2018-06-03T11:34:44.905Z,36.09
2018-06-03T11:36:57.363Z,36.87
2018-06-03T11:39:09.783Z,36.54
2018-06-03T11:41:22.134Z,37.31
2018-06-03T11:43:34.633Z,35.81
2018-06-03T11:45:47.064Z,36.25
2018-06-03T11:47:59.455Z,36.80
2018-06-03T11:50:11.999Z,36.34
2018-06-03T11:52:24.431Z,37.72
2018-06-03T11:54:36.914Z,37.96
2018-06-03T11:56:59.876Z,36.84
2018-06-03T11:59:23.604Z,37.75
2018-06-03T12:01:36.186Z,39.90
2018-06-03T12:03:48.671Z,39.08
2018-06-03T12:06:01.069Z,40.03
2018-06-03T12:08:13.513Z,39.16
2018-06-03T12:10:26.033Z,38.41
2018-06-03T12:12:39.322Z,39.56
2018-06-03T12:14:51.774Z,37.32
2018-06-03T12:17:04.216Z,36.56
2018-06-03T12:19:16.643Z,37.17
2018-06-03T12:21:29.755Z,37.51
2018-06-03T12:23:42.189Z,34.92
2018-06-03T12:25:54.639Z,35.49
2018-06-03T12:28:07.080Z,36.30
2018-06-03T12:30:19.511Z,38.20
2018-06-03T12:32:31.887Z,36.16
2018-06-03T12:34:44.233Z,38.33
2018-06-03T12:36:56.656Z,37.70
2018-06-03T12:39:09.563Z,37.72
2018-06-03T12:41:22.030Z,36.73
2018-06-03T12:43:34.507Z,36.46
2018-06-03T12:45:46.898Z,36.84
2018-06-03T12:47:59.391Z,35.32
2018-06-03T12:50:11.839Z,36.71
2018-06-03T12:52:24.288Z,37.30
2018-06-03T12:54:36.714Z,35.40
2018-06-03T12:56:49.212Z,35.97
2018-06-03T12:59:01.671Z,37.46
2018-06-03T13:01:14.074Z,37.01
2018-06-03T13:03:26.512Z,37.48
2018-06-03T13:05:38.941Z,37.97
2018-06-03T13:07:51.365Z,35.87
2018-06-03T13:10:03.811Z,36.28
2018-06-03T13:12:16.193Z,37.41
2018-06-03T13:14:28.658Z,36.90
2018-06-03T13:16:41.085Z,37.01
2018-06-03T13:18:53.554Z,36.00
2018-06-03T13:21:05.886Z,37.40
2018-06-03T13:23:18.385Z,36.04
2018-06-03T13:25:30.799Z,38.24
2018-06-03T13:27:43.265Z,36.98
2018-06-03T13:29:55.804Z,36.34
2018-06-03T13:32:08.290Z,35.39
2018-06-03T13:34:20.693Z,35.91
2018-06-03T13:36:33.072Z,35.58
2018-06-03T13:38:45.518Z,36.94
2018-06-03T13:40:58.019Z,34.81
2018-06-03T13:43:10.438Z,35.85
2018-06-03T13:45:22.914Z,36.92
2018-06-03T13:47:35.307Z,37.07
2018-06-03T13:49:47.733Z,34.99
2018-06-03T13:52:00.156Z,34.98
2018-06-03T13:54:12.602Z,35.53
2018-06-03T13:56:25.056Z,34.57
2018-06-03T13:58:37.399Z,35.78
2018-06-03T14:00:49.827Z,36.78
2018-06-03T14:03:02.211Z,35.34
2018-06-03T14:05:14.676Z,35.94
2018-06-03T14:07:27.041Z,36.27
2018-06-03T14:09:39.535Z,35.30
2018-06-03T14:11:51.974Z,37.18
2018-06-03T14:14:04.460Z,35.26
2018-06-03T14:16:16.963Z,34.93
2018-06-03T14:18:29.359Z,35.28
2018-06-03T14:20:41.866Z,36.58
2018-06-03T14:22:54.255Z,36.27
2018-06-03T14:25:06.623Z,37.61
2018-06-03T14:27:19.075Z,36.51
2018-06-03T14:29:31.428Z,35.49
2018-06-03T14:31:43.894Z,35.34
2018-06-03T14:33:56.258Z,35.57
2018-06-03T14:36:08.671Z,35.79
2018-06-03T14:38:21.087Z,35.11
2018-06-03T14:40:33.451Z,35.82
2018-06-03T14:42:45.884Z,36.62
2018-06-03T14:44:58.281Z,36.82
2018-06-03T14:47:10.733Z,35.11
2018-06-03T14:49:23.092Z,35.59
2018-06-03T14:51:35.486Z,36.51
2018-06-03T14:53:47.959Z,35.95
2018-06-03T14:56:00.386Z,35.11
2018-06-03T14:58:12.867Z,34.43
2018-06-03T15:00:25.245Z,35.38
2018-06-03T15:02:37.674Z,35.21
2018-06-03T15:04:50.170Z,35.17
2018-06-03T15:07:02.653Z,35.83
2018-06-03T15:09:15.020Z,36.71
2018-06-03T15:11:27.368Z,36.94
2018-06-03T15:13:39.790Z,36.98
2018-06-03T15:15:52.236Z,36.27
2018-06-03T15:18:04.744Z,36.12
2018-06-03T15:20:17.184Z,36.62
2018-06-03T15:22:29.632Z,36.30
2018-06-03T15:24:42.061Z,34.81
2018-06-03T15:26:54.483Z,35.18
2018-06-03T15:29:06.941Z,35.17
2018-06-03T15:31:19.303Z,35.72
2018-06-03T15:33:31.678Z,35.65
2018-06-03T15:35:44.175Z,36.63
2018-06-03T15:37:56.734Z,35.46
2018-06-03T15:40:09.155Z,35.67
2018-06-03T15:42:21.516Z,36.54
2018-06-03T15:44:33.903Z,35.98
2018-06-03T15:46:46.320Z,36.60
2018-06-03T15:48:58.797Z,37.26
2018-06-03T15:51:11.489Z,37.33
2018-06-03T15:53:24.075Z,36.92
2018-06-03T15:55:36.725Z,35.91
2018-06-03T15:57:49.095Z,36.65
2018-06-03T16:00:01.499Z,37.36
2018-06-03T16:02:13.923Z,35.94
2018-06-03T16:04:26.362Z,36.33
2018-06-03T16:06:38.883Z,36.67
2018-06-03T16:08:51.323Z,38.18
2018-06-03T16:11:03.715Z,35.84
2018-06-03T16:13:16.165Z,36.93
2018-06-03T16:15:28.615Z,36.70
2018-06-03T16:17:41.123Z,36.01
2018-06-03T16:19:53.556Z,35.69
2018-06-03T16:22:05.924Z,36.07
2018-06-03T16:24:18.412Z,35.95
2018-06-03T16:26:30.830Z,35.81
2018-06-03T16:28:43.290Z,36.21
2018-06-03T16:30:55.719Z,36.07
2018-06-03T16:33:08.108Z,35.64
2018-06-03T16:35:20.578Z,37.66
2018-06-03T16:37:32.968Z,37.67
2018-06-03T16:39:45.345Z,35.93
2018-06-03T16:41:57.677Z,35.86
2018-06-03T16:44:10.191Z,35.91
2018-06-03T16:46:22.679Z,36.44
2018-06-03T16:48:35.160Z,36.51
2018-06-03T16:50:47.582Z,36.25
2018-06-03T16:53:00.035Z,36.79
2018-06-03T16:55:12.468Z,36.07
2018-06-03T16:57:24.843Z,36.31
2018-06-03T16:59:37.384Z,37.34
2018-06-03T17:01:49.740Z,36.78
2018-06-03T17:04:02.109Z,36.00
2018-06-03T17:06:14.506Z,35.61
2018-06-03T17:08:26.851Z,36.34
2018-06-03T17:10:39.248Z,36.37
2018-06-03T17:12:51.644Z,36.61
2018-06-03T17:15:04.225Z,35.95
2018-06-03T17:17:16.600Z,36.11
2018-06-03T17:19:29.454Z,35.97
2018-06-03T17:21:41.856Z,36.71
2018-06-03T17:23:54.294Z,36.90
2018-06-03T17:26:06.699Z,37.02
2018-06-03T17:28:19.142Z,36.95
2018-06-03T17:30:31.514Z,37.10
2018-06-03T17:32:43.967Z,37.35
2018-06-03T17:34:56.318Z,37.52
2018-06-03T17:37:08.719Z,36.29
2018-06-03T17:39:21.112Z,36.31
2018-06-03T17:41:33.463Z,36.62
2018-06-03T17:43:45.880Z,36.46
2018-06-03T17:45:58.355Z,37.29
2018-06-03T17:48:10.793Z,36.77
2018-06-03T17:50:23.284Z,37.82
2018-06-03T17:52:35.722Z,37.08
2018-06-03T17:54:48.185Z,37.04
2018-06-03T17:57:00.574Z,37.56
2018-06-03T17:59:13.002Z,37.88
2018-06-03T18:01:25.458Z,37.63
2018-06-03T18:03:37.803Z,38.79
2018-06-03T18:05:50.154Z,37.80
2018-06-03T18:08:02.715Z,38.80
2018-06-03T18:10:15.127Z,39.00
2018-06-03T18:12:27.536Z,39.44
2018-06-03T18:14:39.955Z,39.52
2018-06-03T18:16:52.425Z,38.88
2018-06-03T18:19:05.086Z,39.51
2018-06-03T18:21:17.509Z,39.27
2018-06-03T18:23:29.946Z,39.36
2018-06-03T18:25:42.327Z,39.82
2018-06-03T18:27:54.789Z,39.92
2018-06-03T18:30:07.239Z,39.12
2018-06-03T18:32:19.736Z,39.25
2018-06-03T18:34:32.110Z,39.55
2018-06-03T18:36:44.552Z,39.88
2018-06-03T18:38:56.880Z,39.54
2018-06-03T18:41:09.328Z,39.71
2018-06-03T18:43:21.779Z,39.93
2018-06-03T18:45:34.227Z,40.18
2018-06-03T18:47:46.675Z,41.09
2018-06-03T18:49:59.044Z,40.34
2018-06-03T18:52:11.492Z,43.06
2018-06-03T18:54:23.915Z,45.02
2018-06-03T18:56:36.263Z,45.76
2018-06-03T18:58:48.811Z,46.29
2018-06-03T19:01:01.228Z,46.15
2018-06-03T19:03:13.825Z,47.02
2018-06-03T19:05:26.383Z,47.69
2018-06-03T19:07:38.791Z,47.39
2018-06-03T19:09:51.350Z,48.36
2018-06-03T19:12:03.986Z,47.81
2018-06-03T19:14:16.562Z,48.75
2018-06-03T19:16:28.984Z,47.98
2018-06-03T19:18:41.527Z,48.90
2018-06-03T19:20:54.078Z,49.09
2018-06-03T19:23:06.589Z,49.45
2018-06-03T19:25:19.091Z,49.85
2018-06-03T19:27:31.573Z,49.38
2018-06-03T19:29:44.027Z,49.77
2018-06-03T19:31:56.473Z,49.97
2018-06-03T19:34:09.017Z,51.09
2018-06-03T19:36:21.517Z,51.71
2018-06-03T19:38:34.098Z,50.91
2018-06-03T19:40:46.532Z,51.63
2018-06-03T19:42:59.045Z,51.37
2018-06-03T19:45:11.548Z,52.41
2018-06-03T19:47:24.003Z,52.89
2018-06-03T19:49:36.575Z,52.73
2018-06-03T19:51:48.948Z,52.41
2018-06-03T19:54:01.319Z,52.88
2018-06-03T19:56:13.768Z,53.93
2018-06-03T19:58:26.206Z,54.35
2018-06-03T20:00:38.609Z,54.32
2018-06-03T20:02:51.080Z,53.47
2018-06-03T20:05:03.544Z,53.93
2018-06-03T20:07:16.053Z,54.09
2018-06-03T20:09:28.497Z,53.48
2018-06-03T20:11:40.879Z,53.31
2018-06-03T20:13:53.366Z,53.80
2018-06-03T20:16:05.827Z,54.62
2018-06-03T20:18:18.462Z,54.08
2018-06-03T20:20:30.847Z,54.28
2018-06-03T20:22:43.214Z,54.39
2018-06-03T20:24:55.635Z,54.70
2018-06-03T20:27:08.105Z,55.34
2018-06-03T20:29:20.596Z,55.34
2018-06-03T20:31:33.080Z,55.45
2018-06-03T20:33:45.512Z,54.71
2018-06-03T20:35:59.101Z,55.09
2018-06-03T20:38:11.553Z,55.88
2018-06-03T21:15:16.088Z,57.23
2018-06-03T21:17:41.092Z,58.23
2018-06-03T21:20:08.093Z,58.26
2018-06-03T21:22:33.054Z,57.89
2018-06-03T21:24:46.186Z,57.91
2018-06-03T21:26:58.543Z,58.54
2018-06-03T21:29:10.989Z,57.98
2018-06-03T21:31:23.412Z,58.11
2018-06-03T21:33:35.873Z,57.49
2018-06-03T21:35:48.263Z,58.46
2018-06-03T21:38:00.654Z,58.16
2018-06-03T21:40:13.088Z,58.16
2018-06-03T21:42:25.544Z,57.56
2018-06-03T21:44:38.174Z,57.69
2018-06-03T21:46:50.564Z,57.63
2018-06-03T21:49:02.910Z,58.27
2018-06-03T21:51:15.407Z,58.62
2018-06-03T21:53:27.721Z,59.08
2018-06-03T21:55:40.109Z,58.99
2018-06-03T21:57:52.470Z,59.44
2018-06-03T22:00:05.609Z,59.81
2018-06-03T22:02:18.282Z,58.89
2018-06-03T22:04:30.692Z,58.93
2018-06-03T22:06:43.121Z,59.41
2018-06-03T22:08:55.522Z,59.47
2018-06-03T22:11:07.935Z,58.53
2018-06-03T22:13:20.278Z,58.75
2018-06-03T22:15:32.773Z,59.58
2018-06-03T22:17:45.198Z,59.27
2018-06-03T22:19:57.603Z,59.80
2018-06-03T22:22:10.102Z,60.03
2018-06-03T22:24:22.580Z,60.20
2018-06-03T22:26:35.011Z,59.84
2018-06-03T22:28:47.396Z,59.85
2018-06-03T22:30:59.955Z,60.27
2018-06-03T22:33:12.362Z,59.04
2018-06-03T22:35:24.882Z,59.21
2018-06-03T22:37:37.262Z,59.96
2018-06-03T22:39:49.641Z,59.72
2018-06-03T22:42:02.006Z,60.13
2018-06-03T22:44:14.396Z,60.17
2018-06-03T22:46:26.838Z,60.36
2018-06-03T22:48:39.526Z,60.71
2018-06-03T22:50:51.871Z,60.54
2018-06-03T22:53:04.333Z,60.41
2018-06-03T22:55:16.743Z,61.41
2018-06-03T22:57:41.699Z,60.79
2018-06-03T22:59:54.138Z,60.88
2018-06-03T23:02:06.591Z,61.63
2018-06-03T23:04:19.019Z,61.42
2018-06-03T23:06:31.588Z,60.60
2018-06-03T23:08:43.976Z,60.70
2018-06-03T23:10:56.379Z,60.68
2018-06-03T23:13:08.814Z,61.30
2018-06-03T23:15:21.164Z,61.74
2018-06-03T23:17:33.561Z,61.15
2018-06-03T23:19:45.948Z,60.90
2018-06-03T23:21:58.374Z,60.77
2018-06-03T23:24:10.760Z,61.12
2018-06-03T23:26:23.180Z,61.38
2018-06-03T23:28:35.588Z,61.30
2018-06-03T23:30:48.768Z,61.70
2018-06-03T23:33:01.225Z,61.29
2018-06-03T23:35:13.604Z,61.47
2018-06-03T23:37:26.125Z,61.88
2018-06-03T23:39:38.519Z,61.34
2018-06-03T23:41:50.938Z,61.80
2018-06-03T23:44:03.420Z,62.60
2018-06-03T23:46:15.808Z,62.07
2018-06-03T23:48:28.272Z,62.17
2018-06-03T23:50:40.678Z,63.38
2018-06-03T23:52:53.118Z,63.17
2018-06-03T23:55:05.547Z,63.36
2018-06-03T23:57:17.995Z,63.53
2018-06-03T23:59:30.446Z,63.60
